createdAt,value
2022-08-04T00:00:10.997Z,63.20
2022-08-04T00:03:02.650Z,63.20
2022-08-04T00:05:49.933Z,63.30
2022-08-04T00:08:25.454Z,63.30
2022-08-04T00:10:56.460Z,63.30
2022-08-04T00:13:25.489Z,63.30
2022-08-04T00:15:54.525Z,63.10
2022-08-04T00:18:27.568Z,63.20
2022-08-04T00:21:01.043Z,63.20
2022-08-04T00:24:11.490Z,63.10
2022-08-04T00:26:18.733Z,63.20
2022-08-04T00:28:48.376Z,63.20
2022-08-04T00:31:17.117Z,63.20
2022-08-04T00:33:46.901Z,63.10
2022-08-04T00:36:18.051Z,63.10
2022-08-04T00:38:45.947Z,63.10
2022-08-04T00:41:23.345Z,63.20
2022-08-04T00:44:07.991Z,63.10
2022-08-04T00:46:51.238Z,63.10
2022-08-04T00:49:46.021Z,63.10
2022-08-04T00:52:32.751Z,63.10
2022-08-04T00:55:24.082Z,63.10
2022-08-04T00:58:11.281Z,64.00
2022-08-04T01:00:46.835Z,63.10
2022-08-04T01:03:21.624Z,63.10
2022-08-04T01:05:58.853Z,63.10
2022-08-04T01:08:50.340Z,63.10
2022-08-04T01:11:28.409Z,63.20
2022-08-04T01:14:06.294Z,63.20
2022-08-04T01:16:40.982Z,63.20
2022-08-04T01:19:27.637Z,63.20
2022-08-04T01:22:24.173Z,63.20
2022-08-04T01:25:07.448Z,64.00
2022-08-04T01:27:50.632Z,63.20
2022-08-04T01:30:19.917Z,63.20
2022-08-04T01:32:53.058Z,63.20
2022-08-04T01:35:47.736Z,63.20
2022-08-04T01:38:21.334Z,63.20
2022-08-04T01:40:53.946Z,63.20
2022-08-04T01:43:22.272Z,63.20
2022-08-04T01:45:58.251Z,63.20
2022-08-04T01:48:27.858Z,63.20
2022-08-04T01:50:58.957Z,63.20
2022-08-04T01:53:31.850Z,63.20
2022-08-04T01:56:01.016Z,63.20
2022-08-04T01:58:31.040Z,63.20
2022-08-04T02:01:05.164Z,63.20
2022-08-04T02:04:20.824Z,63.10
2022-08-04T02:06:32.696Z,63.10
2022-08-04T02:09:09.944Z,63.20
2022-08-04T02:11:38.111Z,63.20
2022-08-04T02:14:37.170Z,63.10
2022-08-04T02:17:13.908Z,63.10
2022-08-04T02:20:04.006Z,63.10
2022-08-04T02:22:34.686Z,63.10
2022-08-04T02:25:07.661Z,63.20
2022-08-04T02:28:03.444Z,63.20
2022-08-04T02:30:38.922Z,63.30
2022-08-04T02:33:10.266Z,63.30
2022-08-04T02:35:41.972Z,63.30
2022-08-04T02:38:25.538Z,63.30
2022-08-04T02:40:56.585Z,63.30
2022-08-04T02:43:51.063Z,63.30
2022-08-04T02:46:19.635Z,63.30
2022-08-04T02:48:51.316Z,63.30
2022-08-04T02:51:25.343Z,63.30
2022-08-04T02:53:56.038Z,63.30
2022-08-04T02:56:26.061Z,63.30
2022-08-04T02:59:00.736Z,63.30
2022-08-04T03:01:28.552Z,63.30
2022-08-04T03:04:24.354Z,63.30
2022-08-04T03:07:37.143Z,63.30
2022-08-04T03:10:28.631Z,63.30
2022-08-04T03:13:33.917Z,63.30
2022-08-04T03:16:21.984Z,63.30
2022-08-04T03:19:34.577Z,63.30
2022-08-04T03:22:27.468Z,63.30
2022-08-04T03:25:54.461Z,63.30
2022-08-04T03:29:00.418Z,63.30
2022-08-04T03:32:13.630Z,63.30
2022-08-04T03:34:55.110Z,63.30
2022-08-04T03:37:40.902Z,63.30
2022-08-04T03:40:40.130Z,63.30
2022-08-04T03:43:56.836Z,63.20
2022-08-04T03:46:49.366Z,64.10
2022-08-04T03:49:51.879Z,63.20
2022-08-04T03:53:09.287Z,63.40
2022-08-04T03:56:08.073Z,63.50
2022-08-04T03:58:53.538Z,63.60
2022-08-04T04:02:02.773Z,63.60
2022-08-04T04:04:47.921Z,63.60
2022-08-04T04:07:59.784Z,63.60
2022-08-04T04:11:08.108Z,63.70
2022-08-04T04:13:54.899Z,63.60
2022-08-04T04:16:38.339Z,63.60
2022-08-04T04:19:23.813Z,63.60
2022-08-04T04:22:22.098Z,63.50
2022-08-04T04:25:00.302Z,63.50
2022-08-04T04:27:40.919Z,63.40
2022-08-04T04:30:17.120Z,63.40
2022-08-04T04:33:08.917Z,63.40
2022-08-04T04:35:46.494Z,63.30
2022-08-04T04:38:52.749Z,63.30
2022-08-04T04:41:40.091Z,63.20
2022-08-04T04:44:30.796Z,63.30
2022-08-04T04:47:08.165Z,63.20
2022-08-04T04:49:41.852Z,63.10
2022-08-04T04:52:14.833Z,63.10
2022-08-04T04:54:52.176Z,63.10
2022-08-04T04:57:53.101Z,63.10
2022-08-04T05:00:13.266Z,63.00
2022-08-04T05:03:03.070Z,63.00
2022-08-04T05:05:41.184Z,63.10
2022-08-04T05:08:44.436Z,63.00
2022-08-04T05:11:34.351Z,63.00
2022-08-04T05:14:36.435Z,63.00
2022-08-04T05:17:02.554Z,63.00
2022-08-04T05:19:43.777Z,63.10
2022-08-04T05:22:19.803Z,63.00
2022-08-04T05:24:50.293Z,63.00
2022-08-04T05:27:21.871Z,63.00
2022-08-04T05:29:55.501Z,63.00
2022-08-04T05:32:29.010Z,62.90
2022-08-04T05:35:03.941Z,63.00
2022-08-04T05:37:34.217Z,62.90
2022-08-04T05:40:04.910Z,63.00
2022-08-04T05:42:34.446Z,63.00
2022-08-04T05:45:03.788Z,62.90
2022-08-04T05:47:33.618Z,63.00
2022-08-04T05:50:03.581Z,63.00
2022-08-04T05:52:33.002Z,63.00
2022-08-04T05:55:02.470Z,63.10
2022-08-04T05:57:31.207Z,63.20
2022-08-04T06:00:00.902Z,63.20
2022-08-04T06:02:31.134Z,63.20
2022-08-04T06:05:00.216Z,63.30
2022-08-04T06:07:29.623Z,63.40
2022-08-04T06:09:57.378Z,63.40
2022-08-04T06:12:31.082Z,63.50
2022-08-04T06:15:00.950Z,63.50
2022-08-04T06:18:32.660Z,63.60
2022-08-04T06:20:23.373Z,63.70
2022-08-04T06:22:56.428Z,63.70
2022-08-04T06:25:27.569Z,63.80
2022-08-04T06:27:56.953Z,63.90
2022-08-04T06:30:27.164Z,63.90
2022-08-04T06:33:03.531Z,63.90
2022-08-04T06:35:33.541Z,64.00
2022-08-04T06:38:04.052Z,64.00
2022-08-04T06:40:34.024Z,64.10
2022-08-04T06:43:03.729Z,64.20
2022-08-04T06:45:34.192Z,64.30
2022-08-04T06:48:03.413Z,64.30
2022-08-04T06:51:25.590Z,64.40
2022-08-04T06:53:21.126Z,64.40
2022-08-04T06:55:50.243Z,64.50
2022-08-04T06:58:19.918Z,64.50
2022-08-04T07:00:48.805Z,64.50
2022-08-04T07:03:21.509Z,64.50
2022-08-04T07:05:50.328Z,64.60
2022-08-04T07:08:18.408Z,64.60
2022-08-04T07:10:47.814Z,64.60
2022-08-04T07:13:16.647Z,64.60
2022-08-04T07:15:46.512Z,64.60
2022-08-04T07:18:14.504Z,64.70
2022-08-04T07:20:43.808Z,64.70
2022-08-04T07:23:13.665Z,64.50
2022-08-04T07:25:58.859Z,64.70
2022-08-04T07:28:31.509Z,64.60
2022-08-04T07:30:59.813Z,64.60
2022-08-04T07:33:29.708Z,64.60
2022-08-04T07:36:10.759Z,64.60
2022-08-04T07:38:51.025Z,64.60
2022-08-04T07:41:39.025Z,64.60
2022-08-04T07:44:09.181Z,64.60
2022-08-04T07:46:37.542Z,64.70
2022-08-04T07:49:06.282Z,64.60
2022-08-04T07:51:35.465Z,64.60
2022-08-04T07:54:05.097Z,64.40
2022-08-04T07:56:34.083Z,64.30
2022-08-04T07:59:02.563Z,64.20
2022-08-04T08:01:31.999Z,64.20
2022-08-04T08:04:01.211Z,64.20
2022-08-04T08:06:34.736Z,64.20
2022-08-04T08:09:12.498Z,64.00
2022-08-04T08:12:37.644Z,64.00
2022-08-04T08:14:32.042Z,64.00
2022-08-04T08:17:02.564Z,63.90
2022-08-04T08:19:30.844Z,64.00
2022-08-04T08:22:00.819Z,63.90
2022-08-04T08:24:30.595Z,64.00
2022-08-04T08:26:59.945Z,63.90
2022-08-04T08:29:29.865Z,64.00
2022-08-04T08:32:01.620Z,63.90
2022-08-04T08:34:34.725Z,63.90
2022-08-04T08:37:07.518Z,63.80
2022-08-04T08:39:40.723Z,64.60
2022-08-04T08:42:34.717Z,63.90
2022-08-04T08:45:40.463Z,63.80
2022-08-04T08:48:44.681Z,63.70
2022-08-04T08:51:47.953Z,63.70
2022-08-04T08:54:45.200Z,63.70
2022-08-04T08:57:30.784Z,63.70
2022-08-04T09:00:08.494Z,63.70
2022-08-04T09:03:08.777Z,63.60
2022-08-04T09:05:49.190Z,63.60
2022-08-04T09:08:31.442Z,63.50
2022-08-04T09:11:07.540Z,63.50
2022-08-04T09:13:45.594Z,63.50
2022-08-04T09:16:18.845Z,63.50
2022-08-04T09:18:54.044Z,63.40
2022-08-04T09:21:30.759Z,63.40
2022-08-04T09:24:36.643Z,63.40
2022-08-04T09:27:00.998Z,63.20
2022-08-04T09:29:37.241Z,63.20
2022-08-04T09:32:11.410Z,63.20
2022-08-04T09:35:03.636Z,63.20
2022-08-04T09:37:45.895Z,63.20
2022-08-04T09:40:31.256Z,63.20
2022-08-04T09:43:15.877Z,63.20
2022-08-04T09:45:54.321Z,63.20
2022-08-04T09:48:35.242Z,63.10
2022-08-04T09:51:11.838Z,63.20
2022-08-04T09:53:54.515Z,63.10
2022-08-04T09:56:29.211Z,63.10
2022-08-04T09:59:09.092Z,62.90
2022-08-04T10:01:39.111Z,62.90
2022-08-04T10:04:11.459Z,62.90
2022-08-04T10:07:02.215Z,62.90
2022-08-04T10:09:42.720Z,62.90
2022-08-04T10:12:29.067Z,62.90
2022-08-04T10:15:10.523Z,62.80
2022-08-04T10:17:57.633Z,62.80
2022-08-04T10:20:46.979Z,62.80
2022-08-04T10:23:24.661Z,62.80
2022-08-04T10:26:07.371Z,62.90
2022-08-04T10:28:42.496Z,62.90
2022-08-04T10:31:20.141Z,63.10
2022-08-04T10:33:53.694Z,63.10
2022-08-04T10:36:25.437Z,63.30
2022-08-04T10:39:00.664Z,63.30
2022-08-04T10:41:35.729Z,63.50
2022-08-04T10:44:23.321Z,63.50
2022-08-04T10:46:56.467Z,63.60
2022-08-04T10:49:29.205Z,63.70
2022-08-04T10:52:04.804Z,63.70
2022-08-04T10:54:43.715Z,63.80
2022-08-04T10:57:16.688Z,63.90
2022-08-04T10:59:50.620Z,64.00
2022-08-04T11:02:32.825Z,64.10
2022-08-04T11:05:11.819Z,64.20
2022-08-04T11:07:44.821Z,64.20
2022-08-04T11:10:14.288Z,64.30
2022-08-04T11:12:43.987Z,64.30
2022-08-04T11:15:19.805Z,64.40
2022-08-04T11:17:54.866Z,64.40
2022-08-04T11:20:37.418Z,64.50
2022-08-04T11:23:09.884Z,64.50
2022-08-04T11:25:52.001Z,65.40
2022-08-04T11:28:26.565Z,64.60
2022-08-04T11:31:00.258Z,64.60
2022-08-04T11:33:38.466Z,64.70
2022-08-04T11:36:15.444Z,64.70
2022-08-04T11:38:50.922Z,64.70
2022-08-04T11:41:23.418Z,64.70
2022-08-04T11:44:01.739Z,64.70
2022-08-04T11:46:38.037Z,64.70
2022-08-04T11:49:11.781Z,64.70
2022-08-04T11:51:40.233Z,64.70
2022-08-04T11:54:08.229Z,64.70
2022-08-04T11:56:38.128Z,64.70
2022-08-04T11:59:09.010Z,64.70
2022-08-04T12:01:47.362Z,64.70
2022-08-04T12:04:26.641Z,64.70
2022-08-04T12:07:21.651Z,64.70
2022-08-04T12:09:55.972Z,64.70
2022-08-04T12:12:29.635Z,64.70
2022-08-04T12:15:04.747Z,64.70
2022-08-04T12:17:52.158Z,64.70
2022-08-04T12:20:31.734Z,64.80
2022-08-04T12:23:15.775Z,64.70
2022-08-04T12:25:49.699Z,64.70
2022-08-04T12:28:24.073Z,64.80
2022-08-04T12:31:01.534Z,64.80
2022-08-04T12:34:02.763Z,64.80
2022-08-04T12:36:34.546Z,64.80
2022-08-04T12:39:07.431Z,64.80
2022-08-04T12:41:46.417Z,64.90
2022-08-04T12:44:33.212Z,65.00
2022-08-04T12:47:27.662Z,65.00
2022-08-04T12:50:00.461Z,65.00
2022-08-04T12:53:00.318Z,65.00
2022-08-04T12:55:24.513Z,65.10
2022-08-04T12:57:53.529Z,65.10
2022-08-04T13:00:30.466Z,65.10
2022-08-04T13:03:10.676Z,65.10
2022-08-04T13:05:41.559Z,65.10
2022-08-04T13:08:12.237Z,65.10
2022-08-04T13:10:42.969Z,65.10
2022-08-04T13:13:17.574Z,65.20
2022-08-04T13:15:56.874Z,65.20
2022-08-04T13:18:29.915Z,65.20
2022-08-04T13:21:19.458Z,65.20
2022-08-04T13:24:19.703Z,65.30
2022-08-04T13:26:57.819Z,65.30
2022-08-04T13:30:00.506Z,65.30
2022-08-04T13:32:25.270Z,65.30
2022-08-04T13:34:55.958Z,65.40
2022-08-04T13:37:31.360Z,65.30
2022-08-04T13:40:02.797Z,65.30
2022-08-04T13:42:31.314Z,65.30
2022-08-04T13:45:00.920Z,65.30
2022-08-04T13:47:33.293Z,65.30
2022-08-04T13:50:17.997Z,65.30
2022-08-04T13:52:47.800Z,65.30
2022-08-04T13:55:26.159Z,65.30
2022-08-04T13:57:59.904Z,65.30
2022-08-04T14:00:38.318Z,65.30
2022-08-04T14:03:19.115Z,65.30
2022-08-04T14:06:15.295Z,65.30
2022-08-04T14:08:55.438Z,65.40
2022-08-04T14:12:10.072Z,65.40
2022-08-04T14:14:25.347Z,65.40
2022-08-04T14:17:01.286Z,65.40
2022-08-04T14:22:09.760Z,65.40
2022-08-04T14:24:42.941Z,65.40
2022-08-04T14:27:12.114Z,66.30
2022-08-04T14:29:41.734Z,65.40
2022-08-04T14:32:12.679Z,65.40
2022-08-04T14:34:44.817Z,65.40
2022-08-04T14:37:18.242Z,65.40
2022-08-04T14:40:17.680Z,65.40
2022-08-04T14:42:55.211Z,65.40
2022-08-04T14:45:31.906Z,65.40
2022-08-04T14:48:00.661Z,65.40
2022-08-04T14:50:37.056Z,65.40
2022-08-04T14:53:06.589Z,65.40
2022-08-04T14:55:34.452Z,65.40
2022-08-04T14:58:36.948Z,65.40
2022-08-04T15:00:56.283Z,65.40
2022-08-04T15:03:24.457Z,65.40
2022-08-04T15:06:02.650Z,65.40
2022-08-04T15:08:33.866Z,65.40
2022-08-04T15:11:03.137Z,65.40
2022-08-04T15:13:33.593Z,65.40
2022-08-04T15:16:07.497Z,65.40
2022-08-04T15:18:37.653Z,65.40
2022-08-04T15:21:08.687Z,65.40
2022-08-04T15:23:39.193Z,65.40
2022-08-04T15:26:10.844Z,65.40
2022-08-04T15:28:43.283Z,65.40
2022-08-04T15:32:07.812Z,65.40
2022-08-04T15:33:59.830Z,65.50
2022-08-04T15:36:34.484Z,65.40
2022-08-04T15:39:09.721Z,65.40
2022-08-04T15:41:54.982Z,65.40
2022-08-04T15:44:59.854Z,65.40
2022-08-04T15:47:27.984Z,65.40
2022-08-04T15:50:08.532Z,65.40
2022-08-04T15:53:10.358Z,65.40
2022-08-04T15:55:43.095Z,65.40
2022-08-04T15:58:13.050Z,65.40
2022-08-04T16:01:17.176Z,65.50
2022-08-04T16:03:57.817Z,65.50
2022-08-04T16:06:46.976Z,65.50
2022-08-04T16:09:45.227Z,65.60
2022-08-04T16:12:54.720Z,65.60
2022-08-04T16:15:39.744Z,65.70
2022-08-04T16:18:25.690Z,65.70
2022-08-04T16:20:57.450Z,65.70
2022-08-04T16:24:02.157Z,65.80
2022-08-04T16:26:54.709Z,65.90
2022-08-04T16:29:41.076Z,66.00
2022-08-04T16:32:11.701Z,66.20
2022-08-04T16:34:49.931Z,66.30
2022-08-04T16:37:22.516Z,66.30
2022-08-04T16:39:51.947Z,66.40
2022-08-04T16:42:36.329Z,66.40
2022-08-04T16:45:12.742Z,66.40
2022-08-04T16:48:03.209Z,66.50
2022-08-04T16:50:33.188Z,66.80
2022-08-04T16:53:01.398Z,66.90
2022-08-04T16:55:29.898Z,67.10
2022-08-04T16:57:59.709Z,67.20
2022-08-04T17:00:32.400Z,67.30
2022-08-04T17:03:03.334Z,67.30
2022-08-04T17:05:39.045Z,67.30
2022-08-04T17:10:57.423Z,67.50
2022-08-04T17:14:03.974Z,67.90
2022-08-04T17:16:22.474Z,68.20
2022-08-04T17:18:52.039Z,68.50
2022-08-04T17:21:24.259Z,68.70
2022-08-04T17:24:16.490Z,68.90
2022-08-04T17:26:42.080Z,69.00
2022-08-04T17:29:20.301Z,69.00
2022-08-04T17:31:48.204Z,69.10
2022-08-04T17:34:21.031Z,69.20
2022-08-04T17:36:50.620Z,69.30
2022-08-04T17:39:21.710Z,69.30
2022-08-04T17:41:49.768Z,69.30
2022-08-04T17:44:17.993Z,69.30
2022-08-04T17:46:48.763Z,69.30
2022-08-04T17:49:23.052Z,69.20
2022-08-04T17:52:05.515Z,69.30
2022-08-04T17:54:40.681Z,69.20
2022-08-04T17:57:19.693Z,69.90
2022-08-04T18:02:40.855Z,69.00
2022-08-04T18:05:11.743Z,69.00
2022-08-04T18:08:39.099Z,69.00
2022-08-04T18:10:52.527Z,68.90
2022-08-04T18:13:25.333Z,68.90
2022-08-04T18:16:02.679Z,68.90
2022-08-04T18:18:30.778Z,68.90
2022-08-04T18:21:02.734Z,68.80
2022-08-04T18:23:33.219Z,68.80
2022-08-04T18:26:02.251Z,68.80
2022-08-04T18:28:33.712Z,68.70
2022-08-04T18:31:02.386Z,68.70
2022-08-04T18:33:39.703Z,68.60
2022-08-04T18:36:36.288Z,68.60
2022-08-04T18:39:13.082Z,68.50
2022-08-04T18:42:01.601Z,68.50
2022-08-04T18:44:31.549Z,68.50
2022-08-04T18:47:22.633Z,68.50
2022-08-04T18:51:01.239Z,68.50
2022-08-04T18:52:45.292Z,68.50
2022-08-04T18:55:55.262Z,68.20
2022-08-04T18:58:07.042Z,67.40
2022-08-04T19:00:35.620Z,66.60
2022-08-04T19:03:04.066Z,65.80
2022-08-04T19:05:37.800Z,65.20
2022-08-04T19:08:32.960Z,64.40
2022-08-04T19:10:59.720Z,63.90
2022-08-04T19:13:29.543Z,63.30
2022-08-04T19:16:02.679Z,62.90
2022-08-04T19:18:32.246Z,62.40
2022-08-04T19:21:05.232Z,62.10
2022-08-04T19:24:10.978Z,61.90
2022-08-04T19:26:28.252Z,61.60
2022-08-04T19:28:56.411Z,61.30
2022-08-04T19:34:12.702Z,60.90
2022-08-04T19:36:40.655Z,60.70
2022-08-04T19:39:14.107Z,60.60
2022-08-04T19:42:05.819Z,60.40
2022-08-04T19:44:33.116Z,60.30
2022-08-04T19:47:02.420Z,60.20
2022-08-04T19:50:04.023Z,60.20
2022-08-04T19:52:36.778Z,60.20
2022-08-04T19:55:10.679Z,60.20
2022-08-04T19:57:46.230Z,60.20
2022-08-04T20:00:17.410Z,60.30
2022-08-04T20:03:01.446Z,60.40
2022-08-04T20:05:52.638Z,60.40
2022-08-04T20:08:18.489Z,60.50
2022-08-04T20:10:51.569Z,60.50
2022-08-04T20:13:21.746Z,60.60
2022-08-04T20:15:57.344Z,60.70
2022-08-04T20:18:34.726Z,60.80
2022-08-04T20:21:18.888Z,60.90
2022-08-04T20:23:50.481Z,61.00
2022-08-04T20:26:18.239Z,61.10
2022-08-04T20:28:52.057Z,61.20
2022-08-04T20:31:22.012Z,61.30
2022-08-04T20:33:53.883Z,61.40
2022-08-04T20:36:23.185Z,61.50
2022-08-04T20:38:52.708Z,61.60
2022-08-04T20:41:20.986Z,61.70
2022-08-04T20:46:37.880Z,61.90
2022-08-04T20:49:06.405Z,62.00
2022-08-04T20:51:39.868Z,62.10
2022-08-04T20:54:16.925Z,62.20
2022-08-04T20:56:51.440Z,62.30
2022-08-04T20:59:20.946Z,62.40
2022-08-04T21:01:53.567Z,62.50
2022-08-04T21:04:35.488Z,62.60
2022-08-04T21:07:05.788Z,62.60
2022-08-04T21:12:27.378Z,62.80
2022-08-04T21:15:01.216Z,62.90
2022-08-04T21:20:29.339Z,63.10
2022-08-04T21:22:59.384Z,63.20
2022-08-04T21:25:29.897Z,63.20
2022-08-04T21:27:58.847Z,63.30
2022-08-04T21:30:28.328Z,63.40
2022-08-04T21:32:56.443Z,63.40
2022-08-04T21:35:26.703Z,63.40
2022-08-04T21:38:16.649Z,63.40
2022-08-04T21:40:53.621Z,63.50
2022-08-04T21:43:23.771Z,63.60
2022-08-04T21:45:56.800Z,63.60
2022-08-04T21:48:31.780Z,63.60
2022-08-04T21:51:13.751Z,63.70
2022-08-04T21:54:01.857Z,63.70
2022-08-04T21:56:29.787Z,63.80
2022-08-04T21:58:58.791Z,63.80
2022-08-04T22:01:51.946Z,63.90
2022-08-04T22:04:15.647Z,63.90
2022-08-04T22:06:47.765Z,64.00
2022-08-04T22:09:21.961Z,64.10
2022-08-04T22:11:51.803Z,64.10
2022-08-04T22:14:29.493Z,64.20
2022-08-04T22:17:04.370Z,64.20
2022-08-04T22:19:40.588Z,64.30
2022-08-04T22:22:25.425Z,64.30
2022-08-04T22:24:55.032Z,64.30
2022-08-04T22:27:36.757Z,64.40
2022-08-04T22:30:13.404Z,64.40
2022-08-04T22:32:47.566Z,64.40
2022-08-04T22:35:33.331Z,64.40
2022-08-04T22:38:23.452Z,64.50
2022-08-04T22:40:57.878Z,64.50
2022-08-04T22:43:33.276Z,64.60
2022-08-04T22:46:03.555Z,64.70
2022-08-04T22:48:33.847Z,64.70
2022-08-04T22:51:02.643Z,64.80
2022-08-04T22:53:30.897Z,64.80
2022-08-04T22:56:09.717Z,64.80
2022-08-04T22:58:40.139Z,64.80
2022-08-04T23:01:09.035Z,64.80
2022-08-04T23:03:38.835Z,64.80
2022-08-04T23:06:10.887Z,64.90
2022-08-04T23:08:42.823Z,64.90
2022-08-04T23:11:11.623Z,64.90
2022-08-04T23:13:40.037Z,64.90
2022-08-04T23:16:10.296Z,64.90
2022-08-04T23:18:42.349Z,64.90
2022-08-04T23:21:13.973Z,65.00
2022-08-04T23:23:47.672Z,65.00
2022-08-04T23:26:28.978Z,64.90
2022-08-04T23:28:56.891Z,65.00
2022-08-04T23:31:24.923Z,65.00
2022-08-04T23:34:12.228Z,65.10
2022-08-04T23:36:41.155Z,65.10
2022-08-04T23:39:10.668Z,65.10
2022-08-04T23:41:51.117Z,65.20
2022-08-04T23:44:25.417Z,65.40
2022-08-04T23:46:59.073Z,65.50
2022-08-04T23:49:44.288Z,65.80
2022-08-04T23:52:19.275Z,66.10
2022-08-04T23:54:58.173Z,66.20
2022-08-04T23:58:02.263Z,66.40
